Flight Track Log - Related Links

Times and Time Zones

All times are in EDT time to prevent confusion due to time zone crossing. See the EXS174 flight status page for this flight to view local times or setup timezone preferences in your user account.

Time Position Orientation Groundspeed Altitude Reporting Facility
EDT Latitude Longitude Course Direction KTS MPH feet Rate Location/Type
Thu 07:08:15 AM 37.3780 -7.9171 12° North  Level Estimated
Thu 07:09:15 AM 37.4898 -7.9019 12° North  Level Estimated
Thu 07:10:15 AM 37.6017 -7.8868 12° North  Level Estimated
Thu 07:11:15 AM 37.7135 -7.8716 12° North  Level Estimated
Thu 07:12:15 AM 37.8254 -7.8563 12° North  Level Estimated
Thu 07:13:15 AM 37.9079 -7.8450 12° North  Level Estimated
Thu 07:14:15 AM 37.9904 -7.8337 12° North  Level Estimated
Thu 07:15:15 AM 38.0730 -7.8224 13° North  Level Estimated
Thu 07:16:15 AM 38.1555 -7.8110 13° North  Level Estimated
Thu 07:17:15 AM 38.2381 -7.7996 13° North  Level Estimated
Thu 07:18:15 AM 38.3206 -7.7882 13° North  Level Estimated
Thu 07:19:15 AM 38.4324 -7.7727 13° North  Level Estimated
Thu 07:20:15 AM 38.5443 -7.7571 13° North  Level Estimated
Thu 07:21:15 AM 38.6561 -7.7415 13° North  Level Estimated
Thu 07:22:15 AM 38.7679 -7.7258 13° North  Level Estimated
Thu 07:23:15 AM 38.8505 -7.7143 13° North  Level Estimated
Thu 07:24:15 AM 38.9330 -7.7026 13° North  Level Estimated
Thu 07:25:15 AM 39.0155 -7.6910 13° North  Level Estimated
Thu 07:26:15 AM 39.0980 -7.6793 13° North  Level Estimated
Thu 07:27:15 AM 39.1806 -7.6676 13° North  Level Estimated
Thu 07:28:15 AM 39.2631 -7.6559 13° North  Level Estimated
Thu 07:29:15 AM 39.3456 -7.6441 13° North  Level Estimated
Thu 07:30:15 AM 39.4281 -7.6324 13° North  Level Estimated
Thu 07:31:15 AM 39.5107 -7.6206 13° North  Level Estimated
Thu 07:32:15 AM 39.6225 -7.6045 14° North  Level Estimated
Thu 07:33:15 AM 39.7343 -7.5884 14° North  Level Estimated
Thu 07:34:15 AM 39.8461 -7.5723 14° North  Level Estimated
Thu 07:35:15 AM 39.9286 -7.5603 14° North  Level Estimated
Thu 07:36:15 AM 40.0111 -7.5483 14° North  Level Estimated
Thu 07:37:15 AM 40.0936 -7.5363 14° North  Level Estimated
Thu 07:38:15 AM 40.1761 -7.5243 14° North  Level Estimated
Thu 07:39:15 AM 40.2586 -7.5122 14° North  Level Estimated
Thu 07:40:15 AM 40.3411 -7.5001 14° North  Level Estimated
Thu 07:41:15 AM 40.4236 -7.4880 14° North  Level Estimated
Thu 07:42:15 AM 40.5061 -7.4758 14° North  Level Estimated
Thu 07:43:15 AM 40.5886 -7.4636 14° North  Level Estimated
Thu 07:44:15 AM 40.6712 -7.4514 14° North  Level Estimated
Thu 07:45:15 AM 40.7537 -7.4392 14° North  Level Estimated
Thu 07:46:15 AM 40.8362 -7.4269 14° North  Level Estimated
Thu 07:47:15 AM 40.9187 -7.4146 15° North  Level Estimated
Thu 07:48:15 AM 41.0011 -7.4022 15° North  Level Estimated
Thu 07:49:15 AM 41.0836 -7.3899 15° North  Level Estimated
Thu 07:50:15 AM 41.1661 -7.3775 15° North  Level Estimated
Thu 07:51:15 AM 41.2486 -7.3650 15° North  Level Estimated
Thu 07:52:15 AM 41.3311 -7.3526 15° North  Level Estimated
Thu 07:53:15 AM 41.4136 -7.3401 15° North  Level Estimated
Thu 07:54:15 AM 41.4961 -7.3275 15° North  Level Estimated
Thu 07:55:15 AM 41.5786 -7.3150 15° North  Level Estimated
Thu 07:56:15 AM 41.6611 -7.3024 15° North  Level Estimated
Thu 07:57:15 AM 41.7436 -7.2898 15° North  Level Estimated
Thu 07:58:15 AM 41.8260 -7.2771 15° North  Level Estimated
Thu 07:59:15 AM 41.9378 -7.2599 16° North  Level Estimated
Thu 08:00:15 AM 42.0496 -7.2427 16° North  Level Estimated
Thu 08:01:15 AM 42.1320 -7.2299 16° North  Level Estimated
Thu 08:02:15 AM 42.2145 -7.2171 16° North  Level Estimated
Thu 08:03:15 AM 42.2970 -7.2042 16° North  Level Estimated
Thu 08:04:15 AM 42.3795 -7.1913 16° North  Level Estimated
Thu 08:05:15 AM 42.4619 -7.1784 16° North  Level Estimated
Thu 08:06:15 AM 42.5444 -7.1655 16° North  Level Estimated
Thu 08:07:15 AM 42.6269 -7.1525 16° North  Level Estimated
Thu 08:08:15 AM 42.7386 -7.1349 17° North  Level Estimated
Thu 08:09:15 AM 42.8504 -7.1172 17° North  Level Estimated
Thu 08:10:15 AM 42.9621 -7.0994 17° North  Level Estimated
Thu 08:11:15 AM 43.0446 -7.0862 17° North  Level Estimated
Thu 08:12:15 AM 43.1270 -7.0730 17° North  Level Estimated
Thu 08:13:15 AM 43.2095 -7.0598 17° North  Level Estimated
Thu 08:14:15 AM 43.2919 -7.0465 17° North  Level Estimated
Thu 08:15:15 AM 43.3744 -7.0332 17° North  Level Estimated
Thu 08:16:15 AM 43.4568 -7.0199 18° North  Level Estimated
Thu 08:17:15 AM 43.5393 -7.0065 18° North  Level Estimated
Thu 08:18:15 AM 43.6217 -6.9931 18° North  Level Estimated
Thu 08:19:15 AM 43.7335 -6.9749 18° North  Level Estimated
Thu 08:20:15 AM 43.8452 -6.9566 18° North  Level Estimated
Thu 08:21:15 AM 43.9569 -6.9382 18° North  Level Estimated
Thu 08:22:15 AM 44.0686 -6.9198 19° North  Level Estimated
Thu 08:23:15 AM 44.1511 -6.9061 19° North  Level Estimated
Thu 08:24:15 AM 44.2335 -6.8925 19° North  Level Estimated
Thu 08:25:15 AM 44.3159 -6.8787 19° North  Level Estimated
Thu 08:26:15 AM 44.3984 -6.8650 19° North  Level Estimated
Thu 08:27:15 AM 44.4808 -6.8512 19° North  Level Estimated
Thu 08:28:15 AM 44.5632 -6.8373 20° North  Level Estimated
Thu 08:29:15 AM 44.6457 -6.8235 20° North  Level Estimated
Thu 08:30:15 AM 44.7281 -6.8095 20° North  Level Estimated
Thu 08:31:15 AM 44.8105 -6.7956 20° North  Level Estimated
Thu 08:32:15 AM 44.8929 -6.7816 20° North  Level Estimated
Thu 08:33:15 AM 44.9754 -6.7675 20° North  Level Estimated
Thu 08:34:15 AM 45.0578 -6.7534 21° North  Level Estimated
Thu 08:35:15 AM 45.1402 -6.7393 21° North  Level Estimated
Thu 08:36:15 AM 45.2226 -6.7252 21° North  Level Estimated
Thu 08:37:15 AM 45.3050 -6.7110 21° North  Level Estimated
Thu 08:38:15 AM 45.3875 -6.6967 21° North  Level Estimated
Thu 08:39:15 AM 45.4991 -6.6774 22° Northeast  Level Estimated
Thu 08:40:15 AM 45.6108 -6.6579 22° Northeast  Level Estimated
Thu 08:41:15 AM 45.7225 -6.6384 22° Northeast  Level Estimated
Thu 08:42:15 AM 45.8049 -6.6239 23° Northeast  Level Estimated
Thu 08:43:15 AM 45.8873 -6.6094 23° Northeast  Level Estimated
Thu 08:44:15 AM 45.9697 -6.5949 23° Northeast  Level Estimated
Thu 08:45:15 AM 46.0521 -6.5803 23° Northeast  Level Estimated
Thu 08:46:15 AM 46.1345 -6.5657 24° Northeast  Level Estimated
Thu 08:47:15 AM 46.2169 -6.5510 24° Northeast  Level Estimated
Thu 08:52:48 AM 50.6088 -3.4412 North 473 544 38,000  Level FlightAware ADS-B
Thu 08:53:24 AM 50.6859 -3.4300 North 473 544 38,000  Level FlightAware ADS-B
Thu 08:54:30 AM 50.8298 -3.4099 North 473 544 38,000  Level FlightAware ADS-B
Thu 08:55:02 AM 50.8993 -3.4001 North 473 544 38,000  Level FlightAware ADS-B
Thu 08:55:49 AM 51.0005 -3.3856 North 472 543 38,000  Level FlightAware ADS-B
Thu 08:56:44 AM 51.1199 -3.3649 North 473 544 38,000  Level FlightAware ADS-B
Thu 08:57:28 AM 51.2163 -3.3417 North 474 545 38,000  Level FlightAware ADS-B
Thu 08:58:02 AM 51.2889 -3.3243 North 473 544 38,000  Level FlightAware ADS-B
Thu 08:58:38 AM 51.3675 -3.3056 North 473 544 38,000  Level FlightAware ADS-B
Thu 08:59:09 AM 51.4330 -3.2900 North 471 542 38,000  Level FlightAware ADS-B
Thu 08:59:40 AM 51.5001 -3.2740 North 470 541 38,000  Level FlightAware ADS-B
Thu 09:00:17 AM 51.5795 -3.2550 North 469 540 38,000  Level FlightAware ADS-B
Thu 09:00:51 AM 51.6519 -3.2377 North 469 540 38,000  Level FlightAware ADS-B
Thu 09:01:24 AM 51.7241 -3.2204 North 467 537 38,000  Level FlightAware ADS-B
Thu 09:02:00 AM 51.7990 -3.2021 North 467 537 38,000  Level FlightAware ADS-B
Thu 09:02:42 AM 51.8902 -3.1795 North 466 536 38,000  Level FlightAware ADS-B
Thu 09:04:04 AM 52.0636 -3.1375 North 467 537 38,000  Level FlightAware ADS-B
Thu 09:04:38 AM 52.1373 -3.1192 North 467 537 38,000  Level FlightAware ADS-B
Thu 09:05:22 AM 52.2312 -3.0961 North 467 537 38,000  Level FlightAware ADS-B
Thu 09:05:55 AM 52.3015 -3.0789 North 467 537 38,000  Level FlightAware ADS-B
Thu 09:06:29 AM 52.3719 -3.0615 North 467 537 38,000  Level FlightAware ADS-B
Thu 09:07:07 AM 52.4523 -3.0413 North 466 536 38,000  Level FlightAware ADS-B
Thu 09:07:38 AM 52.5200 -3.0242 North 466 536 38,000  Level FlightAware ADS-B
Thu 09:08:10 AM 52.5893 -3.0067 North 466 536 38,000  Level FlightAware ADS-B
Thu 09:08:44 AM 52.6595 -2.9890 North 466 536 38,000  Level FlightAware ADS-B
Thu 09:09:15 AM 52.7254 -2.9723 North 466 536 38,000  Level FlightAware ADS-B
Thu 09:09:45 AM 52.7905 -2.9562 North 466 536 38,000  Level FlightAware ADS-B
Thu 09:10:15 AM 52.8543 -2.9401 North 466 536 38,000  Level FlightAware ADS-B
Thu 09:10:47 AM 52.9211 -2.9230 North 466 536 38,000  Level FlightAware ADS-B
Thu 09:11:20 AM 52.9911 -2.9050 North 465 535 38,000  Level FlightAware ADS-B
Thu 09:11:48 AM 53.0513 -2.8890 14° North 466 536 38,000  Level FlightAware ADS-B
Thu 09:12:07 AM 53.0909 -2.8725 20° North 466 536 38,000  Level FlightAware ADS-B
Thu 09:12:38 AM 53.1537 -2.8350 20° North 466 536 38,000  Level FlightAware ADS-B
Thu 09:13:47 AM 53.2924 -2.7492 20° North 465 535 38,000  Level FlightAware ADS-B
Thu 09:14:48 AM 53.4149 -2.6727 20° North 464 534 38,000  Level FlightAware ADS-B
Thu 09:15:24 AM 53.4879 -2.6269 21° North 464 534 38,000  Level FlightAware ADS-B
Thu 09:15:56 AM 53.5523 -2.5862 21° North 464 534 38,000  Level FlightAware ADS-B
Thu 09:16:29 AM 53.6176 -2.5450 21° North 463 533 38,000  Level FlightAware ADS-B
Thu 09:18:27 AM 53.8522 -2.3950 17° North 461 531 38,000  Level FlightAware ADS-B
Thu 09:18:40 AM 53.8802 -2.3802 North 459 528 38,000  Level FlightAware ADS-B
Thu 09:18:49 AM 53.8973 -2.3758 330° Northwest 459 528 38,000  Level FlightAware ADS-B
Thu 09:26:15 AM 54.4301 -2.9078 329° Northwest  Level Estimated
Thu 09:27:15 AM 54.5015 -2.9804 329° Northwest  Level Estimated
Thu 09:28:15 AM 54.5730 -3.0533 329° Northwest  Level Estimated
Thu 09:29:15 AM 54.6698 -3.1524 329° Northwest  Level Estimated
Thu 09:30:15 AM 54.7664 -3.2521 329° Northwest  Level Estimated
Thu 09:31:15 AM 54.8630 -3.3522 329° Northwest  Level Estimated
Thu 09:32:15 AM 54.9595 -3.4528 329° Northwest  Level Estimated
Thu 09:33:15 AM 55.0559 -3.5538 329° Northwest  Level Estimated
Thu 09:34:15 AM 55.1270 -3.6288 329° Northwest  Level Estimated
Thu 09:35:15 AM 55.1981 -3.7039 329° Northwest  Level Estimated
Thu 09:36:15 AM 55.2691 -3.7794 329° Northwest  Level Estimated
Thu 09:37:15 AM 55.3400 -3.8551 329° Northwest  Level Estimated
Thu 09:38:15 AM 55.4109 -3.9311 329° Northwest  Level Estimated
Thu 09:39:15 AM 55.4818 -4.0073 329° Northwest  Level Estimated
Thu 09:40:15 AM 55.5526 -4.0838 329° Northwest  Level Estimated
Thu 09:41:15 AM 55.6234 -4.1607 328° Northwest  Level Estimated
Thu 09:42:15 AM 55.6941 -4.2378 328° Northwest  Level Estimated
Thu 09:43:15 AM 55.7648 -4.3151 328° Northwest  Level Estimated
Thu 09:44:15 AM 55.8354 -4.3927 328° Northwest  Level Estimated
Thu 09:45:15 AM 55.9060 -4.4707 148° Southeast  Level Estimated
Thu 09:46:15 AM 55.8103 -4.3652 328° Northwest  Level Estimated
Thu 09:47:15 AM 55.9060 -4.4707 148° Southeast  Level Estimated
Thu 09:48:15 AM 55.8103 -4.3652 328° Northwest  Level Estimated
Thu 09:49:15 AM 55.9060 -4.4707 148° Southeast  Level Estimated
Thu 09:50:15 AM 55.8354 -4.3928 328° Northwest  Level Estimated
Thu 09:51:15 AM 55.9060 -4.4707 148° Southeast  Level Estimated
Thu 09:52:15 AM 55.8354 -4.3928 328° Northwest  Level Estimated
Thu 09:53:15 AM 55.9060 -4.4707 148° Southeast  Level Estimated
Thu 09:54:15 AM 55.8354 -4.3928 328° Northwest  Level Estimated
Thu 09:55:15 AM 55.9060 -4.4707 148° Southeast  Level Estimated
Thu 09:56:15 AM 55.8354 -4.3928 328° Northwest  Level Estimated
Thu 09:57:15 AM 55.9060 -4.4707 148° Southeast  Level Estimated
Thu 09:58:15 AM 55.8354 -4.3928 148° Southeast  Level Estimated

Login

Don't have an account? Register now (free) for customized features, flight alerts, and more!